Latest Coastal Weather Observations for Adelaide Airport

IDS60701

Issued at 10:45 am CDT Sunday 26 October 2014 (issued every 10 minutes, with the page automatically refreshed every 10 minutes)

About coastal observations | Map of coastal stations | Coastal observations for SA | Marine services | Other Formats
Station Details ID: 023034 Name: ADELAIDE AIRPORT Lat: -34.95 Lon: 138.52 Height: 2.0 m
Data from the previous 72 hours. | See also: Recent months at Adelaide Airport
Date/Time
CDT
Temp

°C
Wind Pressure Rain
since 9am
mm
Weather Cloud Vis
km
Sea
Height
m
Swell
Dir
 
Speed
knots
Gust
knots
hPa Trend Height
m
Period
s
Dir
26/10:30am 20.4 NNE 17 22 1010.8 - 0.0 - Mostly clear 10 - - - -
26/10:20am 19.9 NNE 18 20 1011.4 - 0.0 Showers Mostly clear 10 - - - -
26/10:00am 21.3 N 6 8 1013.5 - 0.0 Showers Mostly cloudy 10 - - - -
26/09:30am 20.6 ENE 8 10 1011.4 - 0.0 - Mostly clear 10 - - - -
26/09:00am 18.4 ENE 7 9 1012.6 F 0.0 Fine Mostly cloudy 35 - - - -
26/08:30am 17.0 NE 12 15 1013.4 - 0.0 - - 10 - - - -
26/08:00am 16.1 E 9 11 1014.3 - 0.0 - Partly cloudy 10 - - - -
26/07:30am 16.6 SE 5 8 1015.5 - 0.0 Showers Mostly clear 10 - - - -
26/07:00am 17.0 W 12 19 1015.7 - 0.0 Showers Mostly clear 10 - - - -
26/06:47am 14.7 ESE 4 13 1016.3 - 0.0 - Mostly clear 10 - - - -
26/06:30am 14.1 SE 4 4 1012.7 - 0.0 - Mostly clear 10 - - - -
26/06:00am 13.4 CALM 0 0 1012.8 F 0.0 Fine Mostly cloudy 35 - - - -
26/05:30am 13.7 CALM 0 0 1012.2 - 0.0 - - 10 - - - -
26/05:00am 14.0 CALM 0 3 1012.3 - 0.0 - - 10 - - - -
26/04:30am 13.8 E 4 4 1012.1 - 0.0 - - 10 - - - -
26/04:00am 13.6 E 2 5 1012.5 - 0.0 - - 10 - - - -
26/03:30am 13.2 ENE 3 4 1012.9 - 0.0 - - 10 - - - -
26/03:00am 13.2 NE 6 6 1012.7 F 0.0 Fine Partly cloudy 35 - - - -
26/02:30am 13.2 NE 5 5 1013.0 - 0.0 - - 10 - - - -
26/02:00am 13.5 ESE 4 5 1013.4 - 0.0 - - 10 - - - -
26/01:30am 13.3 E 4 4 1013.6 - 0.0 - - 10 - - - -
26/01:00am 13.9 NW 1 4 1014.0 - 0.0 - - 10 - - - -
26/12:30am 14.4 NNE 5 5 1014.5 - 0.0 - - 10 - - - -
 
Date/Time
CDT
Temp

°C
Wind Pressure Rain
since 9am
mm
Weather Cloud Vis
km
Sea
Height
m
Swell
Dir
 
Speed
knots
Gust
knots
hPa Trend Height
m
Period
s
Dir
25/11:30pm 14.6 E 5 5 1014.6 - 0.0 - - 10 - - - -
25/11:00pm 15.1 CALM 0 0 1015.2 - 0.0 - - 10 - - - -
25/10:30pm 14.7 CALM 0 0 1015.5 - 0.0 - - 10 - - - -
25/10:00pm 15.9 CALM 0 0 1016.0 - 0.0 - - 10 - - - -
25/09:30pm 15.9 CALM 0 0 1016.1 - 0.0 - - 10 - - - -
25/09:00pm 16.8 W 3 4 1015.8 F 0.0 Fine Mostly cloudy 35 - - - -
25/08:30pm 17.0 W 3 4 1015.8 - 0.0 - - 10 - - - -
25/08:00pm 17.1 SW 4 5 1015.5 - 0.0 - - 10 - - - -
25/07:30pm 17.7 WSW 6 7 1015.6 - 0.0 - - 10 - - - -
25/07:00pm 18.4 WSW 8 9 1015.5 - 0.0 - - 10 - - - -
25/06:30pm 18.9 SW 7 8 1015.2 - 0.0 - - 10 - - - -
25/06:00pm 18.9 SW 8 10 1015.2 F 0.0 Fine Partly cloudy 30 - - - -
25/05:30pm 18.7 WSW 10 12 1015.3 - 0.0 - - 10 - - - -
25/05:00pm 19.0 WSW 10 14 1015.4 - 0.0 - - 10 - - - -
25/04:30pm 19.1 WSW 11 14 1015.6 - 0.0 - Mostly clear 10 - - - -
25/04:00pm 19.1 SW 10 14 1015.4 - 0.0 - Mostly clear 10 - - - -
25/03:30pm 19.2 SW 13 17 1015.7 - 0.0 - Mostly clear 10 - - - -
25/03:00pm 19.8 WSW 13 17 1016.1 R 0.0 Fine Mostly cloudy 30 - - - -
25/02:30pm 18.7 WSW 12 16 1016.2 - 0.0 - Mostly clear 10 - - - -
25/02:00pm 19.0 WSW 12 15 1016.1 - 0.0 - Mostly clear 10 - - - -
25/01:30pm 19.3 SW 13 16 1016.1 - 0.0 - Mostly clear 10 - - - -
25/01:00pm 20.1 WSW 14 16 1016.2 - 0.0 - Mostly clear 10 - - - -
25/12:30pm 19.6 WSW 15 17 1016.4 - 0.0 - Mostly clear 10 - - - -
25/12:00pm 20.7 W 10 13 1016.3 F 0.0 Haze Mostly clear 25 - - - -
25/11:30am 19.9 W 10 13 1016.5 - 0.0 - Mostly clear 10 - - - -
25/11:00am 21.3 W 9 11 1016.8 - 0.0 - Mostly clear 10 - - - -
25/10:30am 20.8 WNW 6 9 1017.0 - 0.0 - - 10 - - - -
25/10:00am 20.6 NW 6 8 1017.1 - 0.0 - Mostly clear 10 - - - -
25/09:30am 20.0 NNW 6 9 1017.2 - 0.0 - Mostly clear 10 - - - -
25/09:00am 19.8 NNW 5 8 1017.3 R 0.0 Haze Mostly clear 20 - - - -
25/08:30am 18.8 N 6 8 1017.2 - 0.0 - Mostly clear 10 - - - -
25/08:00am 18.1 NNE 8 9 1016.8 - 0.0 - Mostly clear 10 - - - -
25/07:30am 17.0 NNE 8 10 1016.5 - 0.0 - Mostly clear 10 - - - -
25/07:00am 14.8 N 5 6 1016.3 - 0.0 - Mostly clear 10 - - - -
25/06:30am 16.1 WNW 5 6 1015.8 - 0.0 - Mostly clear 10 - - - -
25/06:00am 16.2 NW 5 6 1015.2 R 0.0 Fine Partly cloudy 35 - - - -
25/05:30am 15.9 WSW 4 6 1014.8 - 0.0 - - 10 - - - -
25/05:00am 15.5 SW 4 6 1014.3 - 0.0 - - 10 - - - -
25/04:30am 14.8 SSE 3 4 1014.0 - 0.0 - - 10 - - - -
25/04:00am 14.8 CALM 0 0 1014.3 - 0.0 - - 10 - - - -
25/03:30am 15.2 CALM 0 0 1014.4 - 0.0 - - 10 - - - -
25/03:00am 16.0 S 4 4 1014.4 R 0.0 Fine Mostly clear 40 - - - -
25/02:30am 16.0 SSE 5 5 1014.3 - 0.0 - - 10 - - - -
25/02:00am 17.0 S 4 5 1014.5 - 0.0 - - 10 - - - -
25/01:30am 17.4 SE 5 6 1014.5 - 0.0 - - 10 - - - -
25/01:00am 17.7 ESE 5 6 1014.5 - 0.0 - - 10 - - - -
25/12:30am 17.8 SSE 7 7 1014.6 - 0.0 - - 10 - - - -
25/12:00am 18.4 SSE 6 7 1014.4 R 0.0 Fine Mostly clear 40 - - - -
 
Date/Time
CDT
Temp

°C
Wind Pressure Rain
since 9am
mm
Weather Cloud Vis
km
Sea
Height
m
Swell
Dir
 
Speed
knots
Gust
knots
hPa Trend Height
m
Period
s
Dir
24/11:30pm 18.7 S 7 10 1014.1 - 0.0 - - 10 - - - -
24/11:00pm 19.2 S 7 8 1014.2 - 0.0 - - 10 - - - -
24/10:30pm 20.1 SW 6 7 1014.2 - 0.0 - - 10 - - - -
24/10:00pm 20.9 S 4 5 1014.1 - 0.0 - - 10 - - - -
24/09:30pm 22.1 SSE 7 8 1013.8 - 0.0 - - 10 - - - -
24/09:00pm 22.1 SSW 8 10 1013.7 F 0.0 Fine Partly cloudy 40 - - - -
24/08:30pm 20.4 SSW 8 12 1013.1 - 0.0 - - 10 - - - -
24/08:00pm 20.1 SW 9 11 1012.9 - 0.0 - - 10 - - - -
24/07:30pm 20.2 SW 12 16 1012.9 - 0.0 - - 10 - - - -
24/07:00pm 21.9 WSW 10 16 1012.7 - 0.0 - - 10 - - - -
24/06:30pm 23.3 SSW 7 9 1012.6 - 0.0 - - 10 - - - -
24/06:00pm 23.0 SW 13 18 1012.8 R 0.0 Fine Mostly clear 40 - - - -
24/05:30pm 24.4 SSW 15 20 1012.5 - 0.0 - - 10 - - - -
24/05:00pm 25.7 SW 17 20 1012.2 - 0.0 - - 10 - - - -
24/04:30pm 26.4 SW 14 18 1012.2 - 0.0 - - 10 - - - -
24/04:00pm 28.5 WSW 8 12 1012.2 - 0.0 - - 10 - - - -
24/03:30pm 29.1 S 5 8 1012.4 - 0.0 - - 10 - - - -
24/03:00pm 28.6 SSW 6 9 1012.8 F 0.0 Fine Mostly clear 40 - - - -
24/02:30pm 29.1 WSW 8 11 1013.2 - 0.0 - - 10 - - - -
24/02:00pm 28.4 SW 6 9 1013.4 - 0.0 - - 10 - - - -
24/01:30pm 28.0 W 7 10 1013.8 - 0.0 - - 10 - - - -
24/01:00pm 27.3 W 6 9 1014.0 - 0.0 - - 10 - - - -
24/12:30pm 26.8 W 7 10 1014.1 - 0.0 - - 10 - - - -
24/12:00pm 26.2 WNW 6 9 1014.4 F 0.0 Haze Mostly clear 20 - - - -
24/11:30am 26.0 NW 4 7 1014.9 - 0.0 - - 10 - - - -
24/11:00am 25.7 N 5 7 1015.0 - 0.0 - - 10 - - - -
24/10:30am 25.2 NE 4 5 1015.1 - 0.0 - - 10 - - - -
24/10:00am 24.1 N 5 7 1015.1 - 0.0 - - 10 - - - -
24/09:30am 21.8 NE 6 7 1014.8 - 0.0 - - 10 - - - -
24/09:00am 21.4 NE 5 7 1014.8 R 0.0 Haze Mostly cloudy 18 - - - -
24/08:30am 20.2 NNE 3 5 1014.8 - 0.0 - - 10 - - - -
24/08:00am 18.1 ENE 2 5 1014.3 - 0.0 - - 10 - - - -
24/07:30am 15.9 CALM 0 0 1014.3 - 0.0 - - 10 - - - -
24/07:00am 14.2 NE 4 5 1014.0 - 0.0 - - 10 - - - -
24/06:30am 14.5 N 4 6 1013.5 - 0.0 - - 10 - - - -
24/06:00am 13.9 NNE 5 6 1013.0 F 0.0 Fine Mostly cloudy 20 - - - -
24/05:30am 14.7 NNE 6 7 1012.7 - 0.0 - - 10 - - - -
24/05:00am 14.1 NNE 7 8 1012.3 - 0.0 - - 10 - - - -
24/04:30am 13.5 ENE 4 5 1012.5 - 0.0 - - 10 - - - -
24/04:00am 13.4 NNE 5 5 1012.7 - 0.0 - - 10 - - - -
24/03:30am 14.4 NNW 8 8 1013.1 - 0.0 - - 10 - - - -
24/03:00am 13.0 ENE 5 7 1012.6 F 0.0 Haze Mostly cloudy 18 - - - -
24/02:30am 12.9 NNE 5 5 1013.6 - 0.0 - Mostly clear 10 - - - -
24/02:00am 13.0 NNE 4 5 1014.1 - 0.0 - Mostly clear 10 - - - -
24/01:30am 13.9 WNW 4 4 1014.5 - 0.0 - Mostly clear 10 - - - -
24/01:00am 13.9 CALM 0 0 1014.8 - 0.0 - Mostly clear 10 - - - -
24/12:30am 13.8 E 3 4 1015.1 - 0.0 - Mostly clear 10 - - - -
24/12:00am 14.7 CALM 0 4 1015.5 F 0.0 Fine Mostly cloudy 20 - - - -
 
Date/Time
CDT
Temp

°C
Wind Pressure Rain
since 9am
mm
Weather Cloud Vis
km
Sea
Height
m
Swell
Dir
 
Speed
knots
Gust
knots
hPa Trend Height
m
Period
s
Dir
23/11:30pm 15.4 W 5 5 1015.8 - 0.0 - - 10 - - - -
23/11:00pm 15.5 NNW 4 6 1015.6 - 0.0 - - 10 - - - -
23/10:30pm 14.9 CALM 0 3 1015.5 - 0.0 - - 10 - - - -
23/10:00pm 16.2 CALM 0 0 1015.8 - 0.0 - - 10 - - - -
23/09:30pm 16.0 WSW 5 6 1015.6 - 0.0 - - 10 - - - -
23/09:00pm 16.0 W 5 6 1015.4 F 0.0 Fine Mostly cloudy 25 - - - -
23/08:30pm 16.4 W 5 5 1015.2 - 0.0 - - 10 - - - -
23/08:00pm 16.7 WSW 3 4 1014.9 - 0.0 - - 10 - - - -
23/07:30pm 17.4 SW 6 8 1015.1 - 0.0 - - 10 - - - -
23/07:00pm 17.8 SW 7 9 1015.0 - 0.0 - - 10 - - - -
23/06:30pm 17.9 SW 7 9 1014.6 - 0.0 - - 10 - - - -
23/06:00pm 17.7 SSW 8 10 1014.4 S 0.0 Fine Mostly cloudy 30 - - - -
23/05:30pm 18.5 SW 13 16 1014.4 - 0.0 - - 10 - - - -
23/05:00pm 18.5 SW 12 15 1014.5 - 0.0 - - 10 - - - -
23/04:30pm 18.3 SW 14 17 1014.4 - 0.0 - - 10 - - - -
23/04:00pm 18.9 SW 12 15 1014.5 - 0.0 - - 10 - - - -
23/03:30pm 19.2 SW 12 19 1014.5 - 0.0 - - 10 - - - -
23/03:00pm 18.5 SW 11 14 1014.7 F 0.0 Fine Mostly cloudy 30 - - - -
23/02:30pm 18.9 WSW 10 12 1015.1 - 0.0 - - 10 - - - -
23/02:00pm 18.7 WSW 13 16 1015.5 - 0.0 - - 10 - - - -
23/01:30pm 19.1 WSW 12 15 1015.8 - 0.0 - - 10 - - - -
23/01:00pm 20.0 WSW 10 12 1016.0 - 0.0 - - 10 - - - -
23/12:30pm 20.1 W 11 14 1016.3 - 0.0 - - 10 - - - -
23/12:00pm 19.9 W 8 12 1016.7 F 0.0 Fine Mostly cloudy 30 - - - -
23/11:30am 20.0 WNW 6 11 1017.1 - 0.0 - Mostly clear 10 - - - -
23/11:00am 19.8 N 6 8 1017.1 - 0.0 - Mostly clear 10 - - - -

Other Formats:

Comma delimited format used in spreadsheet applications
http://www.bom.gov.au/fwo/IDS60701/IDS60701.94672.axf

JavaScript Object Notation format (JSON) in row-major order
http://www.bom.gov.au/fwo/IDS60701/IDS60701.94672.json